Terminal Aerodrome Forecast
Issued by NWS

Home | Current Version | Previous Version | Text Only | Print | Product List | Glossary On
Versions: 1 2 3 4 5 6 7 8 9 10 11 12 13
585
FTUS42 KMLB 081122
TAFSUA
TAF
KSUA 081122Z 0812/0912 27005KT P6SM FEW250
     FM081500 27012KT P6SM FEW040 SCT250
     FM081800 25016G22KT P6SM SCT040 SCT250
     FM090000 25014G20KT P6SM VCSH BKN040=

USA.gov is the U.S. government's official web portal to all federal, state and local government web resources and services.